Terminal Aerodrome Forecast
Issued by NWS Shreveport, LA

Home | Current Version | Previous Version | Text Only | Print | Product List | Glossary On
Versions: 1 2 3 4 5 6 7 8 9 10 11 12 13 14 15
986
FTUS44 KSHV 251728
TAFSHV
TAF
KSHV 251728Z 2518/2618 19004KT P6SM VCTS FEW030CB SCT160 BKN280
      TEMPO 2519/2523 5SM -TSRA BKN040CB OVC070
     FM252300 05006KT P6SM BKN040 OVC250
     FM260000 VRB04KT P6SM OVC150
     FM261000 07004KT P6SM FEW020 BKN150
     FM261500 06004KT P6SM SCT030
     FM261700 06004KT P6SM VCTS SCT030CB=

USA.gov is the U.S. government's official web portal to all federal, state and local government web resources and services.